Time;durP1;ratioP1;P1;durP2;ratioP2;P2;SDS_P1;SDS_P2;PMS_P1;PMS_P2;Temp;Humidity;BMP_temperature;BMP_pressure;BME280_temperature;BME280_humidity;BME280_pressure;Samples;Min_cycle;Max_cycle;Signal;HPM_P1;HPM_P2
2022/02/24 00:02:22;;;;;;;3.80;1.40;;;6.50;32.90;;;;;;5012790;28;20648;-84
2022/02/24 00:04:48;;;;;;;7.57;0.80;;;6.60;99.90;;;;;;5012713;28;20530;-85
2022/02/24 00:07:14;;;;;;;5.53;0.87;;;6.60;1.00;;;;;;5012221;28;20457;-86
2022/02/24 00:09:39;;;;;;;5.80;1.57;;;6.60;99.90;;;;;;5012756;28;20808;-85
2022/02/24 00:12:06;;;;;;;4.23;1.07;;;6.60;82.00;;;;;;5012664;28;20229;-83
2022/02/24 00:14:32;;;;;;;5.90;0.83;;;6.60;1.00;;;;;;5012715;28;20172;-86
2022/02/24 00:16:58;;;;;;;6.00;1.13;;;6.60;99.90;;;;;;5012739;28;20529;-86
2022/02/24 00:19:23;;;;;;;3.13;0.80;;;6.60;1.00;;;;;;5012559;28;20246;-86
2022/02/24 00:21:49;;;;;;;1.03;0.60;;;6.60;1.00;;;;;;5012263;28;20258;-86
2022/02/24 00:24:14;;;;;;;3.93;0.83;;;6.60;99.90;;;;;;5013443;28;20195;-86
2022/02/24 00:26:40;;;;;;;3.23;0.93;;;6.60;1.00;;;;;;5016222;28;20252;-86
2022/02/24 00:29:05;;;;;;;6.67;1.40;;;6.60;99.90;;;;;;5016382;28;20163;-86
2022/02/24 00:31:31;;;;;;;4.63;0.80;;;6.60;1.00;;;;;;5016161;28;20287;-86
2022/02/24 00:33:58;;;;;;;6.30;1.47;;;6.70;99.90;;;;;;5016205;28;20645;-84
2022/02/24 00:36:24;;;;;;;3.23;1.00;;;6.80;1.00;;;;;;4998244;28;20225;-84
2022/02/24 00:38:49;;;;;;;3.07;1.07;;;6.70;99.90;;;;;;4998657;28;20466;-85
2022/02/24 00:41:18;;;;;;;4.87;1.03;;;6.80;1.00;;;;;;5016074;28;20615;-84
2022/02/24 00:43:44;;;;;;;9.83;1.60;;;6.60;8.30;;;;;;5016087;28;20206;-85
2022/02/24 00:46:10;;;;;;;6.20;1.23;;;6.60;1.00;;;;;;5016017;28;20453;-85
2022/02/24 00:48:35;;;;;;;5.30;1.20;;;6.60;99.90;;;;;;5015795;28;20237;-85
2022/02/24 00:51:01;;;;;;;4.07;1.37;;;6.50;90.20;;;;;;4997941;28;20432;-85
2022/02/24 00:53:26;;;;;;;5.17;1.90;;;6.50;1.00;;;;;;4998416;28;20883;-85
2022/02/24 00:55:52;;;;;;;1.30;0.90;;;6.50;1.00;;;;;;5015873;28;20197;-85
2022/02/24 00:58:17;;;;;;;4.03;0.90;;;6.50;1.00;;;;;;4998323;28;20183;-85
2022/02/24 01:00:43;;;;;;;6.17;1.30;;;6.50;1.00;;;;;;5015769;28;20171;-85
2022/02/24 01:03:08;;;;;;;4.40;0.50;;;6.50;99.90;;;;;;5015601;28;20172;-84
2022/02/24 01:05:34;;;;;;;5.33;1.40;;;6.50;1.00;;;;;;5015420;28;20700;-85
2022/02/24 01:07:59;;;;;;;1.27;0.67;;;6.40;1.00;;;;;;5015594;28;20204;-85
2022/02/24 01:10:25;;;;;;;1.73;1.20;;;6.40;1.00;;;;;;5009424;28;20184;-85
2022/02/24 01:12:50;;;;;;;2.13;0.50;;;6.40;99.90;;;;;;5003678;28;20219;-84
2022/02/24 01:15:16;;;;;;;3.40;0.87;;;6.50;99.90;;;;;;5005137;28;20251;-84
2022/02/24 01:17:43;;;;;;;1.90;1.40;;;6.40;99.90;;;;;;4986865;28;20211;-83
2022/02/24 01:20:10;;;;;;;3.67;1.43;;;6.40;1.00;;;;;;4995768;28;20543;-85
2022/02/24 01:22:35;;;;;;;4.70;1.13;;;6.40;1.00;;;;;;4978030;28;20947;-84
2022/02/24 01:25:01;;;;;;;1.57;0.77;;;6.40;1.00;;;;;;4978326;28;20455;-85
2022/02/24 01:27:27;;;;;;;3.63;0.67;;;6.30;1.00;;;;;;4995917;28;20242;-84
2022/02/24 01:29:52;;;;;;;4.33;1.43;;;6.40;99.90;;;;;;4996184;28;20183;-85
2022/02/24 01:32:18;;;;;;;1.60;0.30;;;6.40;1.00;;;;;;5008306;28;20211;-83
2022/02/24 01:34:43;;;;;;;4.00;0.73;;;6.40;1.00;;;;;;5004115;28;20595;-85
2022/02/24 01:37:09;;;;;;;3.70;1.07;;;6.40;99.90;;;;;;5005517;28;20183;-85
2022/02/24 01:39:34;;;;;;;3.83;0.90;;;6.40;81.40;;;;;;4982627;28;20171;-85
2022/02/24 01:42:00;;;;;;;4.90;0.80;;;6.40;99.90;;;;;;5012079;28;20171;-86
2022/02/24 01:44:26;;;;;;;2.87;0.80;;;6.40;1.00;;;;;;4997570;28;20209;-85
2022/02/24 01:46:52;;;;;;;1.73;0.40;;;6.40;1.00;;;;;;5014948;28;20592;-83
2022/02/24 01:49:22;;;;;;;2.73;0.80;;;6.40;1.00;;;;;;5014627;28;20471;-84
2022/02/24 01:51:47;;;;;;;1.50;0.43;;;6.30;1.00;;;;;;5008299;28;20291;-85
2022/02/24 01:54:13;;;;;;;4.80;1.33;;;6.30;1.00;;;;;;5013960;28;20471;-86
2022/02/24 01:56:39;;;;;;;5.67;0.60;;;6.20;1.00;;;;;;5036798;28;20172;-86
2022/02/24 01:59:05;;;;;;;6.00;1.33;;;;;;;;;;5022510;28;20180;-86
2022/02/24 02:01:30;;;;;;;3.97;0.73;;;6.20;99.90;;;;;;5018447;28;20207;-84
2022/02/24 02:03:56;;;;;;;5.77;1.03;;;6.10;99.90;;;;;;4994687;28;20486;-86
2022/02/24 02:06:25;;;;;;;3.33;0.87;;;6.10;76.00;;;;;;4977592;28;20172;-86
2022/02/24 02:08:51;;;;;;;4.53;1.13;;;6.10;1.00;;;;;;4978541;28;20539;-86
2022/02/24 02:11:17;;;;;;;4.90;1.00;;;6.20;99.90;;;;;;4994918;28;20445;-86
2022/02/24 02:13:42;;;;;;;3.97;0.70;;;6.30;1.00;;;;;;4977820;28;20182;-86
2022/02/24 02:16:09;;;;;;;1.20;0.70;;;6.50;99.90;;;;;;4977206;28;20173;-85
2022/02/24 02:18:35;;;;;;;3.27;0.80;;;6.60;22.50;;;;;;4995199;28;20173;-86
2022/02/24 02:21:01;;;;;;;3.07;0.97;;;6.60;99.90;;;;;;4994998;28;20490;-87
2022/02/24 02:23:26;;;;;;;3.33;1.73;;;6.80;99.90;;;;;;4978576;28;20435;-87
2022/02/24 02:25:52;;;;;;;5.70;1.13;;;6.90;99.90;;;;;;4996747;28;20173;-87
2022/02/24 02:28:21;;;;;;;5.00;1.53;;;7.10;99.90;;;;;;4977876;28;20183;-87
2022/02/24 02:30:46;;;;;;;4.50;0.83;;;7.20;1.00;;;;;;4977791;28;20211;-88
2022/02/24 02:33:15;;;;;;;3.70;0.80;;;7.20;1.00;;;;;;4977125;28;20863;-89
2022/02/24 02:35:41;;;;;;;5.50;1.30;;;7.20;1.00;;;;;;4995033;28;20174;-87
2022/02/24 02:38:06;;;;;;;3.67;0.77;;;7.30;1.00;;;;;;4977189;28;21013;-87
2022/02/24 02:40:37;;;;;;;3.17;0.97;;;7.20;1.00;;;;;;4994345;28;20176;-86
2022/02/24 02:43:05;;;;;;;4.10;0.87;;;7.30;1.00;;;;;;4994767;28;20532;-87
2022/02/24 02:45:31;;;;;;;4.20;1.33;;;7.30;1.00;;;;;;4976571;28;20427;-86
2022/02/24 02:47:59;;;;;;;3.57;0.80;;;7.30;99.90;;;;;;4993474;28;20430;-86
2022/02/24 02:50:25;;;;;;;2.30;1.13;;;7.30;1.00;;;;;;4993285;28;20969;-87
2022/02/24 02:52:50;;;;;;;1.83;0.93;;;7.30;1.00;;;;;;4993680;28;20533;-86
2022/02/24 02:55:19;;;;;;;9.40;1.50;;;7.30;1.00;;;;;;4992605;28;20174;-86
2022/02/24 02:57:49;;;;;;;4.30;1.37;;;7.30;1.00;;;;;;4993686;28;20263;-87
2022/02/24 03:00:16;;;;;;;5.37;1.37;;;7.40;99.90;;;;;;4993996;28;20461;-86
2022/02/24 03:02:42;;;;;;;3.30;1.83;;;7.30;99.90;;;;;;4993625;28;20949;-86
2022/02/24 03:05:09;;;;;;;2.20;0.80;;;7.30;99.90;;;;;;4976094;28;20412;-86
2022/02/24 03:07:34;;;;;;;6.10;2.07;;;7.30;1.00;;;;;;4993183;28;20581;-86
2022/02/24 03:10:01;;;;;;;4.00;1.17;;;7.20;1.00;;;;;;4976066;28;20413;-87
2022/02/24 03:12:26;;;;;;;6.30;1.03;;;7.30;99.90;;;;;;4992292;28;20307;-86
2022/02/24 03:14:52;;;;;;;6.03;1.07;;;7.30;99.90;;;;;;4993537;28;20494;-87
2022/02/24 03:17:17;;;;;;;2.90;1.37;;;7.30;99.90;;;;;;4981154;28;20250;-85
2022/02/24 03:19:43;;;;;;;3.50;1.00;;;7.30;1.00;;;;;;5013016;28;20181;-86
2022/02/24 03:22:11;;;;;;;5.80;0.77;;;7.30;99.90;;;;;;4995003;28;20177;-86
2022/02/24 03:24:37;;;;;;;5.03;1.47;;;7.30;99.90;;;;;;4995379;28;20176;-85
2022/02/24 03:27:03;;;;;;;2.43;1.07;;;7.30;99.90;;;;;;4995461;28;20978;-86
2022/02/24 03:29:29;;;;;;;7.10;1.13;;;7.20;99.90;;;;;;5013040;28;20412;-85
2022/02/24 03:31:55;;;;;;;6.20;1.10;;;7.30;99.90;;;;;;4995274;28;20637;-86
2022/02/24 03:34:20;;;;;;;5.47;1.77;;;7.30;99.90;;;;;;4995261;28;20176;-85
2022/02/24 03:36:46;;;;;;;2.10;1.10;;;7.30;99.90;;;;;;4994554;28;20225;-85
2022/02/24 03:39:11;;;;;;;5.10;1.60;;;7.30;99.90;;;;;;5012855;28;20183;-86
2022/02/24 03:41:37;;;;;;;2.13;0.70;;;7.40;99.90;;;;;;5013064;28;20198;-85
2022/02/24 03:44:03;;;;;;;3.70;1.30;;;7.30;99.90;;;;;;5013073;28;20212;-85
2022/02/24 03:46:28;;;;;;;3.63;1.53;;;7.30;1.00;;;;;;5013048;28;20174;-85
2022/02/24 03:48:54;;;;;;;2.60;1.27;;;7.30;99.90;;;;;;5012765;28;20223;-85
2022/02/24 03:51:19;;;;;;;5.03;1.30;;;7.30;99.90;;;;;;5012418;28;20199;-87
2022/02/24 03:53:45;;;;;;;2.20;0.83;;;7.30;1.00;;;;;;4995399;28;20183;-86
2022/02/24 03:56:12;;;;;;;6.23;1.87;;;7.30;1.00;;;;;;5013047;28;20644;-86
2022/02/24 03:58:39;;;;;;;4.83;1.63;;;7.20;1.00;;;;;;5012973;28;20207;-86
2022/02/24 04:01:05;;;;;;;6.53;1.23;;;7.30;1.00;;;;;;5016853;28;20442;-85
2022/02/24 04:03:30;;;;;;;3.30;1.30;;;7.30;1.00;;;;;;5016958;28;20781;-85
2022/02/24 04:05:56;;;;;;;4.97;1.10;;;7.20;33.40;;;;;;5016405;28;20195;-86
2022/02/24 04:08:21;;;;;;;3.80;1.50;;;7.20;1.00;;;;;;5016789;28;20190;-86
2022/02/24 04:10:47;;;;;;;6.53;1.03;;;7.20;99.90;;;;;;5016720;28;20510;-86
2022/02/24 04:13:14;;;;;;;4.40;1.10;;;7.20;1.00;;;;;;5016694;28;20221;-86
2022/02/24 04:15:39;;;;;;;3.20;1.13;;;7.20;99.90;;;;;;5016810;28;20419;-86
2022/02/24 04:18:05;;;;;;;5.53;1.23;;;7.20;99.90;;;;;;5016633;28;20420;-86
2022/02/24 04:20:32;;;;;;;6.53;2.80;;;7.20;1.00;;;;;;4998569;28;20188;-86
2022/02/24 04:22:58;;;;;;;2.37;1.43;;;6.90;1.00;;;;;;5016511;28;20496;-85
2022/02/24 04:25:24;;;;;;;4.00;1.17;;;7.10;99.90;;;;;;5016407;28;20485;-87
2022/02/24 04:27:51;;;;;;;2.37;1.10;;;7.10;1.00;;;;;;4998803;28;20439;-87
2022/02/24 04:30:17;;;;;;;4.93;1.33;;;7.00;1.00;;;;;;5016494;28;20427;-88
2022/02/24 04:32:43;;;;;;;4.60;1.17;;;7.10;1.00;;;;;;5016598;28;20476;-88
2022/02/24 04:35:10;;;;;;;6.00;1.60;;;7.10;99.90;;;;;;4998483;28;20418;-87
2022/02/24 04:37:36;;;;;;;5.77;1.63;;;7.10;99.90;;;;;;5016266;28;20775;-87
2022/02/24 04:40:04;;;;;;;5.30;1.67;;;7.00;1.00;;;;;;5016412;28;20518;-88
2022/02/24 04:42:30;;;;;;;3.30;0.93;;;7.00;99.90;;;;;;5016289;28;20651;-85
2022/02/24 04:44:55;;;;;;;3.53;1.90;;;7.10;99.90;;;;;;5016016;28;20501;-84
2022/02/24 04:47:21;;;;;;;3.20;1.33;;;7.10;99.90;;;;;;5016003;28;20242;-87
2022/02/24 04:49:47;;;;;;;3.30;1.13;;;7.00;1.00;;;;;;5015924;28;20629;-87
2022/02/24 04:52:12;;;;;;;5.90;1.23;;;7.00;1.00;;;;;;5015600;28;20235;-87
2022/02/24 04:54:37;;;;;;;4.10;1.27;;;7.00;99.90;;;;;;5015941;28;20258;-88
2022/02/24 04:57:03;;;;;;;6.17;1.33;;;7.00;1.00;;;;;;4998234;28;20664;-86
2022/02/24 04:59:29;;;;;;;4.47;1.20;;;7.00;1.00;;;;;;5015732;28;20169;-87
2022/02/24 05:01:55;;;;;;;5.30;1.50;;;7.00;99.90;;;;;;5015888;28;20176;-84
2022/02/24 05:04:20;;;;;;;4.33;1.53;;;7.00;1.00;;;;;;4998144;28;20172;-85
2022/02/24 05:06:46;;;;;;;5.07;0.93;;;7.00;99.90;;;;;;4997791;28;20176;-86
2022/02/24 05:09:11;;;;;;;7.23;1.07;;;7.00;99.90;;;;;;5015710;28;20171;-85
2022/02/24 05:11:40;;;;;;;2.93;1.00;;;7.00;99.90;;;;;;5015230;28;20880;-86
2022/02/24 05:14:08;;;;;;;6.60;1.73;;;6.90;99.90;;;;;;5015584;28;20207;-85
2022/02/24 05:16:34;;;;;;;1.97;0.90;;;7.00;54.80;;;;;;5015610;28;20415;-86
2022/02/24 05:18:59;;;;;;;3.53;0.93;;;7.00;59.60;;;;;;5015380;28;20482;-86
2022/02/24 05:21:25;;;;;;;8.73;1.70;;;7.00;99.90;;;;;;5015177;28;20195;-85
2022/02/24 05:23:51;;;;;;;6.90;1.53;;;7.00;1.00;;;;;;5015427;28;20262;-85
2022/02/24 05:26:17;;;;;;;3.40;1.70;;;7.00;1.00;;;;;;4997853;28;20266;-84
2022/02/24 05:28:42;;;;;;;5.90;2.70;;;7.00;1.00;;;;;;5015257;28;20966;-85
2022/02/24 05:31:08;;;;;;;4.27;0.83;;;7.10;1.00;;;;;;5015171;28;20499;-87
2022/02/24 05:33:34;;;;;;;3.00;0.93;;;7.00;1.00;;;;;;4997563;28;20175;-85
2022/02/24 05:36:00;;;;;;;4.63;2.47;;;7.00;99.90;;;;;;4997353;28;20177;-85
2022/02/24 05:38:26;;;;;;;7.50;2.17;;;7.00;99.90;;;;;;5015245;28;20226;-85
2022/02/24 05:40:51;;;;;;;8.30;2.50;;;7.00;99.90;;;;;;5015143;28;20410;-86
2022/02/24 05:43:17;;;;;;;4.50;1.20;;;7.00;1.00;;;;;;4997423;28;20179;-84
2022/02/24 05:45:43;;;;;;;5.97;1.90;;;7.00;99.90;;;;;;5014978;28;20527;-84
2022/02/24 05:48:09;;;;;;;7.17;1.57;;;7.00;1.00;;;;;;4997272;28;20510;-83
2022/02/24 05:50:35;;;;;;;2.70;1.20;;;7.00;1.00;;;;;;5014311;28;20314;-84
2022/02/24 05:53:04;;;;;;;3.60;1.20;;;7.00;99.90;;;;;;5014867;28;21034;-83
2022/02/24 05:55:30;;;;;;;3.10;2.10;;;7.00;99.90;;;;;;5014777;28;20176;-85
2022/02/24 05:57:56;;;;;;;5.40;2.20;;;7.00;99.90;;;;;;5014463;28;20416;-83
2022/02/24 06:00:22;;;;;;;7.20;2.23;;;7.10;99.90;;;;;;5014583;28;20815;-84
2022/02/24 06:02:48;;;;;;;3.30;1.83;;;7.10;99.90;;;;;;5014599;28;20177;-84
2022/02/24 06:05:13;;;;;;;2.67;1.90;;;7.10;1.00;;;;;;5014164;28;20173;-86
2022/02/24 06:07:39;;;;;;;5.30;2.17;;;7.10;1.00;;;;;;4997047;28;20527;-85
2022/02/24 06:10:05;;;;;;;7.83;1.90;;;7.20;99.90;;;;;;5014491;28;20208;-84
2022/02/24 06:12:30;;;;;;;5.47;2.23;;;7.10;99.90;;;;;;5013815;28;20269;-85
2022/02/24 06:14:56;;;;;;;6.87;2.63;;;7.20;1.00;;;;;;5014344;28;20420;-85
2022/02/24 06:17:21;;;;;;;3.80;2.00;;;7.20;99.90;;;;;;5014347;28;20179;-84
2022/02/24 06:19:47;;;;;;;9.20;2.90;;;7.20;1.00;;;;;;5013937;28;20179;-85
2022/02/24 06:22:15;;;;;;;6.90;2.53;;;7.10;1.00;;;;;;4995871;28;20634;-85
2022/02/24 06:24:41;;;;;;;4.93;1.90;;;7.20;1.00;;;;;;5013581;28;20653;-85
2022/02/24 06:27:06;;;;;;;8.13;2.37;;;7.20;1.00;;;;;;5013482;28;20461;-84
2022/02/24 06:29:32;;;;;;;7.37;3.20;;;7.20;99.90;;;;;;4996118;28;20171;-84
2022/02/24 06:31:57;;;;;;;4.20;1.63;;;7.20;54.10;;;;;;4995913;28;20296;-84
2022/02/24 06:34:23;;;;;;;7.47;2.60;;;7.20;93.50;;;;;;5013077;28;20276;-84
2022/02/24 06:36:48;;;;;;;6.87;2.70;;;7.20;1.00;;;;;;5013627;28;20650;-85
2022/02/24 06:39:15;;;;;;;7.07;2.43;;;7.20;99.90;;;;;;5014002;28;20172;-85
2022/02/24 06:41:40;;;;;;;4.77;3.00;;;7.30;99.90;;;;;;5013960;28;20196;-85
2022/02/24 06:44:06;;;;;;;5.57;2.30;;;7.30;99.90;;;;;;5013814;28;20459;-85
2022/02/24 06:46:31;;;;;;;5.80;2.70;;;7.30;99.90;;;;;;5013967;28;20231;-84
2022/02/24 06:48:57;;;;;;;7.00;3.10;;;7.30;99.90;;;;;;5013573;28;20249;-85
2022/02/24 06:51:23;;;;;;;8.23;3.50;;;7.30;99.90;;;;;;4995591;28;20242;-87
2022/02/24 06:53:48;;;;;;;5.43;2.37;;;7.30;99.90;;;;;;5013741;28;20503;-84
2022/02/24 06:56:14;;;;;;;8.93;2.30;;;7.30;29.50;;;;;;5013661;28;20623;-84
2022/02/24 06:58:39;;;;;;;4.23;2.13;;;7.30;70.60;;;;;;4996124;28;20315;-84
2022/02/24 07:01:05;;;;;;;9.00;2.80;;;7.40;1.00;;;;;;5013557;28;20163;-86
2022/02/24 07:03:30;;;;;;;10.53;3.50;;;7.40;1.00;;;;;;4996140;28;20258;-86
2022/02/24 07:05:56;;;;;;;4.60;2.40;;;7.40;1.00;;;;;;5013315;28;20173;-86
2022/02/24 07:08:22;;;;;;;4.77;2.10;;;7.50;1.00;;;;;;5013458;28;20186;-86
2022/02/24 07:10:47;;;;;;;8.43;2.20;;;7.50;1.00;;;;;;5013448;28;20587;-86
2022/02/24 07:13:13;;;;;;;5.17;2.33;;;7.50;1.00;;;;;;5013409;28;20618;-85
2022/02/24 07:15:38;;;;;;;2.87;1.70;;;7.50;1.00;;;;;;4995757;28;20173;-86
2022/02/24 07:18:04;;;;;;;4.53;2.40;;;7.60;1.00;;;;;;5013398;28;20227;-85
2022/02/24 07:20:29;;;;;;;3.90;1.63;;;7.60;1.00;;;;;;5012978;28;20174;-85
2022/02/24 07:22:55;;;;;;;6.87;2.80;;;7.60;99.90;;;;;;5013257;28;20217;-85
2022/02/24 07:25:20;;;;;;;6.90;2.20;;;7.50;99.90;;;;;;5013247;28;20265;-86
2022/02/24 07:27:46;;;;;;;7.00;2.43;;;7.50;99.90;;;;;;4995619;28;20180;-87
2022/02/24 07:30:12;;;;;;;7.83;2.37;;;7.60;99.90;;;;;;4995697;28;20176;-87
2022/02/24 07:32:39;;;;;;;9.93;2.70;;;7.60;99.90;;;;;;5013233;28;20471;-87
2022/02/24 07:35:05;;;;;;;8.73;3.27;;;7.60;1.00;;;;;;5012700;28;20513;-87
2022/02/24 07:37:30;;;;;;;6.03;1.70;;;7.50;99.90;;;;;;4995255;28;20520;-86
2022/02/24 07:39:56;;;;;;;8.87;2.47;;;7.60;99.90;;;;;;5013034;28;20411;-86
2022/02/24 07:42:22;;;;;;;5.30;2.03;;;7.60;99.90;;;;;;5013740;28;20171;-87
2022/02/24 07:44:48;;;;;;;9.10;3.20;;;7.60;1.00;;;;;;4995280;28;20184;-86
2022/02/24 07:47:14;;;;;;;5.60;2.60;;;7.60;1.00;;;;;;5013802;28;20181;-85
2022/02/24 07:49:40;;;;;;;7.37;3.00;;;7.70;99.90;;;;;;4994960;28;20470;-85
2022/02/24 07:52:06;;;;;;;7.53;2.03;;;7.70;1.00;;;;;;4995451;28;20480;-85
2022/02/24 07:54:32;;;;;;;6.03;2.53;;;7.80;1.00;;;;;;5013858;28;20494;-85
2022/02/24 07:56:58;;;;;;;6.93;2.77;;;8.00;1.00;;;;;;5013024;28;20508;-85
2022/02/24 07:59:23;;;;;;;7.20;3.30;;;7.90;18.70;;;;;;5013011;28;20263;-86
2022/02/24 08:01:49;;;;;;;5.73;2.30;;;8.10;1.00;;;;;;5012933;28;20630;-86
2022/02/24 08:04:15;;;;;;;6.60;4.67;;;8.10;99.90;;;;;;5013040;28;20253;-86
2022/02/24 08:06:41;;;;;;;7.27;3.60;;;8.10;1.00;;;;;;4994992;28;20210;-87
2022/02/24 08:09:07;;;;;;;5.77;2.70;;;8.10;4.50;;;;;;5012928;28;20421;-87
2022/02/24 08:11:33;;;;;;;5.80;3.37;;;8.10;1.00;;;;;;5012794;28;20456;-86
2022/02/24 08:14:03;;;;;;;7.17;3.30;;;8.20;1.00;;;;;;5013052;28;20174;-86
2022/02/24 08:16:28;;;;;;;9.90;4.50;;;8.20;86.50;;;;;;5012609;28;20430;-87
2022/02/24 08:18:59;;;;;;;5.53;2.60;;;8.20;1.00;;;;;;5012885;28;20424;-86
2022/02/24 08:21:25;;;;;;;8.57;3.60;;;8.20;1.00;;;;;;5012694;28;20170;-89
2022/02/24 08:23:51;;;;;;;6.03;2.57;;;8.30;1.00;;;;;;4995393;28;20428;-88
2022/02/24 08:26:17;;;;;;;5.30;3.20;;;8.30;1.00;;;;;;5012778;28;20185;-85
2022/02/24 08:28:43;;;;;;;4.30;2.37;;;8.30;99.90;;;;;;5012881;28;20767;-84
2022/02/24 08:31:08;;;;;;;6.37;2.83;;;8.30;99.90;;;;;;5006932;28;20532;-86
2022/02/24 08:33:34;;;;;;;8.63;3.00;;;8.30;99.90;;;;;;5009302;28;20673;-84
2022/02/24 08:35:59;;;;;;;5.53;2.30;;;8.30;1.00;;;;;;5010599;28;20673;-86
2022/02/24 08:38:25;;;;;;;5.40;2.60;;;8.30;29.60;;;;;;5012186;28;20241;-85
2022/02/24 08:40:50;;;;;;;7.53;3.07;;;8.30;1.00;;;;;;4995010;28;20166;-85
2022/02/24 08:43:22;;;;;;;7.20;2.20;;;8.30;1.00;;;;;;5033075;28;20150;-85
2022/02/24 08:45:48;;;;;;;5.53;2.10;;;8.40;1.00;;;;;;5037633;28;20172;-85
2022/02/24 08:48:14;;;;;;;4.93;1.57;;;8.40;1.00;;;;;;5039826;28;20441;-84
2022/02/24 08:50:40;;;;;;;6.13;1.97;;;8.50;99.90;;;;;;5039790;28;20555;-85
2022/02/24 08:53:06;;;;;;;7.40;1.03;;;8.40;1.00;;;;;;5019692;28;20514;-84
2022/02/24 08:55:32;;;;;;;9.47;3.73;;;8.30;20.10;;;;;;4999365;28;20418;-85
2022/02/24 08:57:58;;;;;;;4.90;1.87;;;8.30;99.90;;;;;;5016377;28;20503;-85
2022/02/24 09:00:23;;;;;;;3.50;1.87;;;8.50;1.00;;;;;;5016146;28;20180;-85
2022/02/24 09:02:49;;;;;;;6.30;2.03;;;8.60;1.00;;;;;;5016419;28;20656;-85
2022/02/24 09:05:15;;;;;;;4.73;1.57;;;8.60;1.00;;;;;;4997242;28;20271;-84
2022/02/24 09:07:40;;;;;;;5.63;1.70;;;8.60;1.00;;;;;;5015168;28;20178;-84
2022/02/24 09:10:06;;;;;;;7.77;1.53;;;8.70;1.00;;;;;;5015199;28;20490;-84
2022/02/24 09:12:32;;;;;;;4.20;1.47;;;8.80;1.00;;;;;;4997846;28;20217;-85
2022/02/24 09:14:59;;;;;;;5.20;1.97;;;9.00;99.90;;;;;;4997909;28;20427;-85
2022/02/24 09:17:25;;;;;;;9.07;2.10;;;9.10;99.90;;;;;;5015504;28;20650;-85
2022/02/24 09:19:51;;;;;;;6.90;1.67;;;9.20;99.90;;;;;;5015114;28;20416;-86
2022/02/24 09:22:16;;;;;;;3.03;1.33;;;9.30;99.90;;;;;;4997915;28;20424;-84
2022/02/24 09:24:42;;;;;;;5.27;1.30;;;8.90;1.00;;;;;;5015187;28;20177;-85
2022/02/24 09:27:08;;;;;;;3.53;1.33;;;8.80;1.00;;;;;;5015926;28;20179;-88
2022/02/24 09:29:37;;;;;;;4.20;1.90;;;8.90;95.80;;;;;;4998584;28;20622;-88
2022/02/24 09:32:03;;;;;;;7.40;1.80;;;9.00;1.00;;;;;;4998780;28;20204;-91
2022/02/24 09:34:31;;;;;;;10.60;2.00;;;9.20;1.00;;;;;;5016336;28;20433;-91
2022/02/24 09:36:57;;;;;;;3.43;1.97;;;9.30;1.00;;;;;;5016419;28;20175;-91
2022/02/24 09:39:22;;;;;;;4.83;1.70;;;9.30;1.00;;;;;;5016585;28;20420;-93
2022/02/24 09:41:55;;;;;;;2.87;0.87;;;10.00;99.90;;;;;;5016453;28;20174;-93
2022/02/24 09:44:20;;;;;;;3.07;1.13;;;9.80;99.90;;;;;;5016779;28;20374;-91
2022/02/24 09:46:48;;;;;;;9.03;2.80;;;9.80;99.90;;;;;;5016488;28;20505;-93
2022/02/24 09:49:16;;;;;;;7.43;1.90;;;9.40;99.90;;;;;;5015782;28;20622;-90
2022/02/24 09:51:43;;;;;;;9.53;2.00;;;9.40;99.90;;;;;;5016456;28;20449;-93
2022/02/24 09:54:09;;;;;;;5.73;1.67;;;9.50;99.90;;;;;;5016412;28;20417;-92
2022/02/24 09:56:35;;;;;;;6.27;1.60;;;9.60;99.90;;;;;;5015021;28;20407;-92
2022/02/24 09:59:00;;;;;;;6.93;1.37;;;10.10;99.90;;;;;;4998797;28;20431;-92
2022/02/24 10:01:26;;;;;;;12.33;1.87;;;10.70;1.00;;;;;;5016066;28;20227;-89
2022/02/24 10:03:57;;;;;;;7.20;1.53;;;10.10;1.00;;;;;;5015103;28;20210;-88
2022/02/24 10:06:33;;;;;;;6.80;1.60;;;10.00;1.00;;;;;;4997007;28;20571;-88
2022/02/24 10:08:59;;;;;;;5.90;1.23;;;10.20;1.00;;;;;;5015265;28;20444;-88
2022/02/24 10:11:28;;;;;;;3.83;1.20;;;11.80;1.00;;;;;;5014953;28;20510;-87
2022/02/24 10:14:01;;;;;;;7.53;1.97;;;12.70;1.00;;;;;;4997169;28;20186;-87
2022/02/24 10:16:28;;;;;;;5.90;1.87;;;12.00;1.00;;;;;;5014671;28;20763;-89
2022/02/24 10:18:55;;;;;;;6.93;1.57;;;12.50;1.00;;;;;;4997223;28;20434;-89
2022/02/24 10:21:21;;;;;;;7.00;1.90;;;12.30;1.00;;;;;;5010412;28;20422;-88
2022/02/24 10:23:48;;;;;;;3.90;1.70;;;12.80;1.00;;;;;;4986348;28;20430;-89
2022/02/24 10:26:15;;;;;;;3.80;1.30;;;13.70;1.00;;;;;;4996897;28;20926;-87
2022/02/24 10:28:51;;;;;;;6.13;2.10;;;13.50;99.90;;;;;;5014772;28;20943;-89
2022/02/24 10:31:25;;;;;;;5.23;1.60;;;12.60;1.00;;;;;;5014500;28;20412;-90
2022/02/24 10:33:53;;;;;;;9.30;2.63;;;13.70;99.90;;;;;;5014399;28;20946;-89
2022/02/24 10:36:33;;;;;;;5.43;2.30;;;13.20;99.90;;;;;;5014137;28;20758;-90
2022/02/24 10:39:11;;;;;;;5.37;2.67;;;12.20;1.00;;;;;;5014361;28;20428;-89
2022/02/24 10:41:43;;;;;;;3.90;1.90;;;12.30;1.00;;;;;;4996687;28;20509;-88
2022/02/24 10:44:15;;;;;;;7.93;2.60;;;11.90;99.90;;;;;;4996836;28;20950;-89
2022/02/24 10:47:07;;;;;;;4.43;1.60;;;11.90;1.00;;;;;;5014262;28;20421;-89
2022/02/24 10:49:36;;;;;;;6.83;2.50;;;11.90;1.00;;;;;;5006975;28;20469;-89
2022/02/24 10:52:11;;;;;;;4.57;1.77;;;11.50;1.00;;;;;;4996483;28;20484;-88
2022/02/24 10:54:37;;;;;;;3.80;1.80;;;11.50;1.00;;;;;;5014217;28;20416;-86
2022/02/24 10:57:17;;;;;;;6.13;2.67;;;11.70;1.00;;;;;;4996342;28;20448;-89
2022/02/24 10:59:46;;;;;;;3.80;1.50;;;11.90;1.00;;;;;;5014183;28;20171;-91
2022/02/24 11:02:11;;;;;;;5.23;1.73;;;12.90;99.90;;;;;;5014016;28;20806;-89
2022/02/24 11:04:37;;;;;;;4.43;2.00;;;12.40;99.90;;;;;;5013263;28;20421;-89
2022/02/24 11:07:03;;;;;;;5.10;1.87;;;12.50;99.90;;;;;;4996368;28;20194;-88
2022/02/24 11:09:29;;;;;;;6.23;1.50;;;12.20;99.90;;;;;;5013363;28;20424;-89
2022/02/24 11:11:55;;;;;;;8.53;1.37;;;12.10;99.90;;;;;;4996445;28;20247;-87
2022/02/24 11:14:21;;;;;;;4.80;2.20;;;11.80;99.90;;;;;;5013880;28;20241;-86
2022/02/24 11:16:49;;;;;;;4.80;1.70;;;11.30;99.90;;;;;;5014051;28;20509;-89
2022/02/24 11:19:15;;;;;;;10.40;1.83;;;11.20;1.00;;;;;;5013448;28;20958;-88
2022/02/24 11:21:43;;;;;;;7.30;1.87;;;11.40;99.90;;;;;;5013780;28;20428;-89
2022/02/24 11:24:09;;;;;;;6.83;2.00;;;11.10;1.00;;;;;;4996234;28;20431;-88
2022/02/24 11:26:41;;;;;;;6.33;1.60;;;11.20;1.00;;;;;;5013731;28;20415;-87
2022/02/24 11:29:13;;;;;;;3.40;0.87;;;10.90;1.00;;;;;;5013512;28;20192;-89
2022/02/24 11:32:01;;;;;;;4.93;1.63;;;11.50;1.00;;;;;;4995891;28;20456;-88
2022/02/24 11:35:07;;;;;;;4.97;1.90;;;11.30;1.00;;;;;;4996782;28;20427;-88
2022/02/24 11:37:38;;;;;;;4.20;1.37;;;11.20;1.00;;;;;;4999365;28;20469;-89
2022/02/24 11:40:18;;;;;;;6.70;2.67;;;11.50;1.00;;;;;;5000002;28;20417;-86
2022/02/24 11:42:51;;;;;;;4.80;2.77;;;11.80;1.00;;;;;;4998725;28;20483;-86
2022/02/24 11:45:23;;;;;;;4.50;2.37;;;11.50;1.00;;;;;;5014856;28;20411;-87
2022/02/24 11:47:59;;;;;;;7.07;3.27;;;11.90;1.00;;;;;;5000473;28;20971;-88
2022/02/24 11:50:39;;;;;;;9.03;2.83;;;11.50;1.00;;;;;;5001124;28;20563;-87
2022/02/24 11:53:08;;;;;;;8.30;4.07;;;11.30;1.00;;;;;;5016096;28;20470;-84
2022/02/24 11:55:52;;;;;;;5.57;2.83;;;11.20;1.00;;;;;;5015736;28;20416;-86
2022/02/24 11:58:39;;;;;;;8.60;4.10;;;11.10;1.00;;;;;;5018337;28;20443;-86
2022/02/24 12:01:11;;;;;;;3.50;3.00;;;10.90;1.00;;;;;;5022763;28;20451;-87
2022/02/24 12:03:46;;;;;;;7.00;2.60;;;10.40;1.00;;;;;;4998544;28;20423;-87
2022/02/24 12:06:12;;;;;;;8.53;2.43;;;10.70;1.00;;;;;;5002435;28;20419;-88
2022/02/24 12:09:00;;;;;;;7.23;3.93;;;10.90;1.00;;;;;;5018947;28;20415;-86
2022/02/24 12:11:31;;;;;;;5.97;2.40;;;11.00;1.00;;;;;;5014932;28;20465;-85
2022/02/24 12:13:57;;;;;;;13.07;3.60;;;11.30;1.00;;;;;;5000529;28;20421;-89
2022/02/24 12:16:26;;;;;;;7.17;3.47;;;;;;;;;;5005510;28;20446;-87
2022/02/24 12:18:54;;;;;;;4.00;3.23;;;11.00;1.00;;;;;;5023313;28;20268;-87
2022/02/24 12:21:30;;;;;;;11.40;3.37;;;11.00;1.00;;;;;;5000047;28;20435;-87
2022/02/24 12:23:58;;;;;;;5.13;3.03;;;10.90;1.00;;;;;;5017431;28;20407;-86
2022/02/24 12:26:41;;;;;;;3.93;3.10;;;10.90;1.00;;;;;;5017065;28;20423;-89
2022/02/24 12:29:17;;;;;;;6.70;3.47;;;11.80;1.00;;;;;;4999485;28;20845;-87
2022/02/24 12:31:42;;;;;;;7.57;2.50;;;11.70;1.00;;;;;;5016793;28;20542;-86
2022/02/24 12:34:08;;;;;;;7.90;3.03;;;11.20;1.00;;;;;;5016565;28;20473;-87
2022/02/24 12:36:33;;;;;;;5.67;3.43;;;12.70;1.00;;;;;;5016817;28;20172;-87
2022/02/24 12:39:00;;;;;;;4.47;2.60;;;13.10;1.00;;;;;;5016416;28;20248;-86
2022/02/24 12:41:26;;;;;;;7.00;1.93;;;15.40;99.90;;;;;;5016448;28;20179;-88
2022/02/24 12:43:51;;;;;;;2.90;2.17;;;16.10;99.90;;;;;;4998952;28;20405;-86
2022/02/24 12:46:17;;;;;;;7.57;2.40;;;15.80;99.90;;;;;;5016246;28;20196;-87
2022/02/24 12:48:42;;;;;;;6.87;2.47;;;15.40;99.90;;;;;;5015615;28;20364;-87
2022/02/24 12:51:10;;;;;;;3.77;2.00;;;;;;;;;;5016073;28;20211;-87
2022/02/24 12:53:36;;;;;;;4.73;1.67;;;12.40;99.90;;;;;;5016081;28;20701;-87
2022/02/24 12:56:02;;;;;;;3.97;2.20;;;12.30;99.90;;;;;;5016030;28;20808;-87
2022/02/24 12:58:31;;;;;;;4.23;2.77;;;14.80;99.90;;;;;;5016348;28;20433;-87
2022/02/24 13:00:58;;;;;;;6.27;1.83;;;14.60;99.90;;;;;;4998480;28;20263;-87